PWSweather.com
Personal Weather Stations
Station Observations
KKYCRABO2
Cedar Creek Lake 840 Ky. Hwy. 39 N, Crab Orchard, KY 40419

Cedar Creek Lake 840 Ky. Hwy. 39 NCrab Orchard, KY 40419

Lat: 37.4736234544238, Lon: -84.5120286941528

Elevation: 952

Station Type: TYCON Power TP1080WC Pro

http://kbweather.net/

Latest ConditionsUpdated 9:50:02 PM EDT Monday, Sep 1, 2014
Currently Today's Max Today's Min Today's Average
Temperature 77.4°F25.2°C 92.8°F33.8°C 44.4°F6.9°C 81.8°F27.7°C
Dew Point 77.1°F25.1°C 88.2°F31.2°C 39.0°F3.9°C 79.9°F26.6°C
Winds Calm Calm 6.9 mph WSW11.1 kmh WSW - 0.5 mph 0.8 kmh
Wind Gusts 0.7 mph1.1 kmh 48.8 mph78.5 kmh - -
Humidity 99% 99% 77% 94%
Pressure 29.61 in1002.7 mb 29.75 in1007.5 mb 29.59 in1002.0 mb -
Precipitation - 0.05 in1.3 mm - -
Hour Temp Dew Point Humidity Winds Wind Gusts Pressure Precip Precip Rate Daily Precip Total
09:50 PM 77.4°F25.2°C 77.1°F25.1°C 99% Calm Calm 0.7 mph1.1 kmh 29.61 in1002.7 mb 0.00 in0.0 mm 0.00 in/hr0.0 mm/hr 0.05 in1.3 mm
09:45 PM 77.4°F25.2°C 77.1°F25.1°C 99% Calm Calm 0.7 mph1.1 kmh 29.61 in1002.7 mb 0.00 in0.0 mm 0.00 in/hr0.0 mm/hr 0.05 in1.3 mm
09:40 PM 77.4°F25.2°C 77.1°F25.1°C 99% Calm Calm 3.1 mph5.0 kmh 29.60 in1002.4 mb 0.00 in0.0 mm 0.00 in/hr0.0 mm/hr 0.05 in1.3 mm
09:35 PM 77.5°F25.3°C 77.3°F25.2°C 99% Calm Calm 3.1 mph5.0 kmh 29.60 in1002.4 mb 0.00 in0.0 mm 0.00 in/hr0.0 mm/hr 0.05 in1.3 mm
09:30 PM 77.7°F25.4°C 77.5°F25.3°C 99% Calm Calm 0.7 mph1.1 kmh 29.60 in1002.4 mb 0.00 in0.0 mm 0.00 in/hr0.0 mm/hr 0.05 in1.3 mm
09:25 PM 77.9°F25.5°C 77.7°F25.4°C 99% Calm Calm 0.7 mph1.1 kmh 29.60 in1002.4 mb 0.00 in0.0 mm 0.00 in/hr0.0 mm/hr 0.05 in1.3 mm
09:20 PM 78.1°F25.6°C 77.8°F25.4°C 99% Calm Calm 0.7 mph1.1 kmh 29.60 in1002.4 mb 0.00 in0.0 mm 0.00 in/hr0.0 mm/hr 0.05 in1.3 mm
09:15 PM 78.1°F25.6°C 77.8°F25.4°C 99% Calm Calm 0.7 mph1.1 kmh 29.60 in1002.4 mb 0.00 in0.0 mm 0.00 in/hr0.0 mm/hr 0.05 in1.3 mm
09:10 PM 77.9°F25.5°C 77.7°F25.4°C 99% Calm Calm 0.7 mph1.1 kmh 29.60 in1002.4 mb 0.00 in0.0 mm 0.00 in/hr0.0 mm/hr 0.05 in1.3 mm
09:05 PM 77.9°F25.5°C 77.7°F25.4°C 99% Calm Calm 0.7 mph1.1 kmh 29.60 in1002.4 mb 0.00 in0.0 mm 0.00 in/hr0.0 mm/hr 0.05 in1.3 mm
09:00 PM 77.9°F25.5°C 77.7°F25.4°C 99% Calm Calm 0.7 mph1.1 kmh 29.60 in1002.4 mb 0.00 in0.0 mm 0.00 in/hr0.0 mm/hr 0.05 in1.3 mm
08:55 PM 77.7°F25.4°C 77.5°F25.3°C 99% Calm Calm 0.7 mph1.1 kmh 29.60 in1002.4 mb 0.00 in0.0 mm 0.00 in/hr0.0 mm/hr 0.05 in1.3 mm
08:50 PM 77.7°F25.4°C 77.5°F25.3°C 99% Calm Calm -- 29.60 in1002.4 mb 0.00 in0.0 mm 0.00 in/hr0.0 mm/hr 0.05 in1.3 mm
08:45 PM 77.7°F25.4°C 77.5°F25.3°C 99% Calm Calm 0.7 mph1.1 kmh 29.60 in1002.4 mb 0.00 in0.0 mm 0.00 in/hr0.0 mm/hr 0.05 in1.3 mm
08:40 PM 77.9°F25.5°C 77.7°F25.4°C 99% Calm Calm 0.7 mph1.1 kmh 29.60 in1002.4 mb 0.00 in0.0 mm 0.00 in/hr0.0 mm/hr 0.05 in1.3 mm
08:35 PM 78.1°F25.6°C 77.8°F25.4°C 99% Calm Calm -- 29.60 in1002.4 mb 0.00 in0.0 mm 0.00 in/hr0.0 mm/hr 0.05 in1.3 mm
08:30 PM 78.3°F25.7°C 78.0°F25.6°C 99% Calm Calm -- 29.60 in1002.4 mb 0.00 in0.0 mm 0.00 in/hr0.0 mm/hr 0.05 in1.3 mm
08:25 PM 78.6°F25.9°C 78.4°F25.8°C 99% Calm Calm 48.8 mph78.5 kmh 29.60 in1002.4 mb 0.00 in0.0 mm 0.00 in/hr0.0 mm/hr 0.05 in1.3 mm
08:20 PM 79.2°F26.2°C 78.9°F26.1°C 99% Calm Calm 48.8 mph78.5 kmh 29.60 in1002.4 mb 0.00 in0.0 mm 0.00 in/hr0.0 mm/hr 0.05 in1.3 mm
08:15 PM 79.5°F26.4°C 79.3°F26.3°C 99% Calm Calm 48.8 mph78.5 kmh 29.59 in1002.0 mb 0.00 in0.0 mm 0.00 in/hr0.0 mm/hr 0.05 in1.3 mm
08:10 PM 80.1°F26.7°C 79.8°F26.6°C 99% Calm Calm 0.7 mph1.1 kmh 29.60 in1002.4 mb 0.00 in0.0 mm 0.00 in/hr0.0 mm/hr 0.05 in1.3 mm
08:05 PM 80.6°F27.0°C 80.1°F26.7°C 98% Calm Calm 0.7 mph1.1 kmh 29.59 in1002.0 mb 0.00 in0.0 mm 0.00 in/hr0.0 mm/hr 0.05 in1.3 mm
08:00 PM 81.1°F27.3°C 80.3°F26.8°C 97% Calm Calm 0.7 mph1.1 kmh 29.59 in1002.0 mb 0.00 in0.0 mm 0.00 in/hr0.0 mm/hr 0.05 in1.3 mm
07:55 PM 81.7°F27.6°C 80.5°F26.9°C 96% Calm Calm 0.7 mph1.1 kmh 29.59 in1002.0 mb 0.00 in0.0 mm 0.00 in/hr0.0 mm/hr 0.05 in1.3 mm
07:50 PM 82.0°F27.8°C 80.9°F27.2°C 96% Calm Calm 0.7 mph1.1 kmh 29.59 in1002.0 mb 0.00 in0.0 mm 0.00 in/hr0.0 mm/hr 0.05 in1.3 mm
07:45 PM 82.2°F27.9°C 80.7°F27.1°C 95% Calm Calm 0.7 mph1.1 kmh 29.59 in1002.0 mb 0.00 in0.0 mm 0.00 in/hr0.0 mm/hr 0.05 in1.3 mm
07:40 PM 82.4°F28.0°C 80.6°F27.0°C 94% Calm Calm 1.6 mph2.6 kmh 29.59 in1002.0 mb 0.00 in0.0 mm 0.00 in/hr0.0 mm/hr 0.05 in1.3 mm
07:35 PM 82.4°F28.0°C 80.6°F27.0°C 94% Calm Calm 1.6 mph2.6 kmh 29.59 in1002.0 mb 0.00 in0.0 mm 0.00 in/hr0.0 mm/hr 0.05 in1.3 mm
07:30 PM 82.6°F28.1°C 80.8°F27.1°C 94% Calm Calm 2.2 mph3.5 kmh 29.59 in1002.0 mb 0.00 in0.0 mm 0.00 in/hr0.0 mm/hr 0.05 in1.3 mm
07:25 PM 82.8°F28.2°C 80.6°F27.0°C 93% Calm Calm 2.2 mph3.5 kmh 29.59 in1002.0 mb 0.00 in0.0 mm 0.00 in/hr0.0 mm/hr 0.05 in1.3 mm
07:20 PM 83.1°F28.4°C 81.0°F27.2°C 93% Calm Calm 0.7 mph1.1 kmh 29.59 in1002.0 mb 0.00 in0.0 mm 0.00 in/hr0.0 mm/hr 0.05 in1.3 mm
07:15 PM 83.8°F28.8°C 81.3°F27.4°C 92% Calm Calm 0.7 mph1.1 kmh 29.60 in1002.4 mb 0.00 in0.0 mm 0.00 in/hr0.0 mm/hr 0.05 in1.3 mm
07:10 PM 83.8°F28.8°C 81.3°F27.4°C 92% Calm Calm 3.1 mph5.0 kmh 29.59 in1002.0 mb 0.00 in0.0 mm 0.00 in/hr0.0 mm/hr 0.05 in1.3 mm
07:05 PM 83.8°F28.8°C 81.3°F27.4°C 92% Calm Calm 3.1 mph5.0 kmh 29.60 in1002.4 mb 0.00 in0.0 mm 0.00 in/hr0.0 mm/hr 0.05 in1.3 mm
07:00 PM 84.0°F28.9°C 81.5°F27.5°C 92% 0.7 mph NW1.1 kmh NW 3.1 mph5.0 kmh 29.60 in1002.4 mb 0.00 in0.0 mm 0.00 in/hr0.0 mm/hr 0.05 in1.3 mm
06:55 PM 84.0°F28.9°C 81.5°F27.5°C 92% Calm Calm 3.8 mph6.1 kmh 29.60 in1002.4 mb 0.00 in0.0 mm 0.00 in/hr0.0 mm/hr 0.05 in1.3 mm
06:50 PM 84.0°F28.9°C 81.5°F27.5°C 92% Calm Calm 3.8 mph6.1 kmh 29.60 in1002.4 mb 0.00 in0.0 mm 0.00 in/hr0.0 mm/hr 0.05 in1.3 mm
06:45 PM 83.8°F28.8°C 81.3°F27.4°C 92% 0.7 mph NE1.1 kmh NE 3.8 mph6.1 kmh 29.60 in1002.4 mb 0.00 in0.0 mm 0.00 in/hr0.0 mm/hr 0.05 in1.3 mm
06:40 PM 83.8°F28.8°C 81.0°F27.2°C 91% Calm Calm 1.6 mph2.6 kmh 29.60 in1002.4 mb 0.00 in0.0 mm 0.00 in/hr0.0 mm/hr 0.05 in1.3 mm
06:35 PM 83.8°F28.8°C 81.0°F27.2°C 91% Calm Calm 1.6 mph2.6 kmh 29.60 in1002.4 mb 0.00 in0.0 mm 0.00 in/hr0.0 mm/hr 0.05 in1.3 mm
06:30 PM 84.0°F28.9°C 80.8°F27.1°C 90% Calm Calm 3.1 mph5.0 kmh 29.59 in1002.0 mb 0.00 in0.0 mm 0.00 in/hr0.0 mm/hr 0.05 in1.3 mm
06:25 PM 84.2°F29.0°C 80.7°F27.1°C 89% Calm Calm 4.5 mph7.2 kmh 29.59 in1002.0 mb 0.00 in0.0 mm 0.00 in/hr0.0 mm/hr 0.05 in1.3 mm
06:20 PM 84.2°F29.0°C 80.7°F27.1°C 89% Calm Calm 5.4 mph8.7 kmh 29.59 in1002.0 mb 0.00 in0.0 mm 0.00 in/hr0.0 mm/hr 0.05 in1.3 mm
06:15 PM 84.6°F29.2°C 81.0°F27.2°C 89% Calm Calm 5.4 mph8.7 kmh 29.60 in1002.4 mb 0.00 in0.0 mm 0.00 in/hr0.0 mm/hr 0.05 in1.3 mm
06:10 PM 84.7°F29.3°C 81.2°F27.3°C 89% 0.7 mph NNE1.1 kmh NNE 5.4 mph8.7 kmh 29.60 in1002.4 mb 0.00 in0.0 mm 0.00 in/hr0.0 mm/hr 0.05 in1.3 mm
06:05 PM 85.3°F29.6°C 81.4°F27.4°C 88% 0.7 mph NW1.1 kmh NW 4.5 mph7.2 kmh 29.59 in1002.0 mb 0.00 in0.0 mm 0.00 in/hr0.0 mm/hr 0.05 in1.3 mm
06:00 PM 86.2°F30.1°C 81.2°F27.3°C 85% Calm Calm 4.5 mph7.2 kmh 29.60 in1002.4 mb 0.00 in0.0 mm 0.00 in/hr0.0 mm/hr 0.05 in1.3 mm
05:55 PM 87.6°F30.9°C 81.9°F27.7°C 83% 0.7 mph N1.1 kmh N 3.8 mph6.1 kmh 29.60 in1002.4 mb 0.00 in0.0 mm 0.00 in/hr0.0 mm/hr 0.05 in1.3 mm
05:50 PM 88.9°F31.6°C 82.0°F27.8°C 80% 0.7 mph N1.1 kmh N 3.8 mph6.1 kmh 29.60 in1002.4 mb 0.00 in0.0 mm 0.00 in/hr0.0 mm/hr 0.05 in1.3 mm
05:45 PM 90.7°F32.6°C 83.4°F28.6°C 79% 0.7 mph N1.1 kmh N 6.0 mph9.7 kmh 29.60 in1002.4 mb 0.00 in0.0 mm 0.00 in/hr0.0 mm/hr 0.05 in1.3 mm
05:40 PM 91.2°F32.9°C 83.5°F28.6°C 78% Calm Calm 6.0 mph9.7 kmh 29.60 in1002.4 mb 0.00 in0.0 mm 0.00 in/hr0.0 mm/hr 0.05 in1.3 mm
05:35 PM 91.6°F33.1°C 84.2°F29.0°C 79% 0.7 mph NE1.1 kmh NE 3.1 mph5.0 kmh 29.61 in1002.7 mb 0.00 in0.0 mm 0.00 in/hr0.0 mm/hr 0.05 in1.3 mm
05:30 PM 91.0°F32.8°C 84.5°F29.2°C 81% 0.7 mph N1.1 kmh N 5.4 mph8.7 kmh 29.61 in1002.7 mb 0.00 in0.0 mm 0.00 in/hr0.0 mm/hr 0.05 in1.3 mm
05:25 PM 90.7°F32.6°C 84.1°F28.9°C 81% Calm Calm 5.4 mph8.7 kmh 29.61 in1002.7 mb 0.00 in0.0 mm 0.00 in/hr0.0 mm/hr 0.05 in1.3 mm
05:20 PM 44.4°F6.9°C 39.0°F3.9°C 81% 0.7 mph NE1.1 kmh NE 5.4 mph8.7 kmh 29.61 in1002.7 mb 0.00 in0.0 mm 0.00 in/hr0.0 mm/hr 0.05 in1.3 mm
05:15 PM 90.3°F32.4°C 83.4°F28.6°C 80% 2.2 mph W3.5 kmh W 5.4 mph8.7 kmh 29.61 in1002.7 mb 0.00 in0.0 mm 0.00 in/hr0.0 mm/hr 0.05 in1.3 mm
05:10 PM 89.8°F32.1°C 83.3°F28.5°C 81% 0.7 mph W1.1 kmh W 4.5 mph7.2 kmh 29.62 in1003.0 mb 0.00 in0.0 mm 0.00 in/hr0.0 mm/hr 0.05 in1.3 mm
05:05 PM 89.1°F31.7°C 82.9°F28.3°C 82% 1.6 mph WSW2.6 kmh WSW 4.5 mph7.2 kmh 29.62 in1003.0 mb 0.00 in0.0 mm 0.00 in/hr0.0 mm/hr 0.05 in1.3 mm
05:00 PM 89.2°F31.8°C 83.1°F28.4°C 82% 1.6 mph WSW2.6 kmh WSW 6.9 mph11.1 kmh 29.62 in1003.0 mb 0.00 in0.0 mm 0.00 in/hr0.0 mm/hr 0.05 in1.3 mm
04:55 PM 89.8°F32.1°C 85.5°F29.7°C 87% 1.6 mph W2.6 kmh W 6.9 mph11.1 kmh 29.62 in1003.0 mb 0.00 in0.0 mm 0.00 in/hr0.0 mm/hr 0.05 in1.3 mm
04:50 PM 89.4°F31.9°C 84.8°F29.3°C 86% 1.6 mph NNE2.6 kmh NNE 6.9 mph11.1 kmh 29.63 in1003.4 mb 0.00 in0.0 mm 0.00 in/hr0.0 mm/hr 0.05 in1.3 mm
04:45 PM 88.9°F31.6°C 86.0°F30.0°C 91% Calm Calm 4.5 mph7.2 kmh 29.63 in1003.4 mb 0.00 in0.0 mm 0.00 in/hr0.0 mm/hr 0.05 in1.3 mm
04:40 PM 88.2°F31.2°C 86.0°F30.0°C 93% Calm Calm 4.5 mph7.2 kmh 29.63 in1003.4 mb 0.00 in0.0 mm 0.00 in/hr0.0 mm/hr 0.05 in1.3 mm
04:35 PM 87.8°F31.0°C 85.6°F29.8°C 93% 2.2 mph NNW3.5 kmh NNW 4.5 mph7.2 kmh 29.63 in1003.4 mb 0.04 in1.0 mm 0.00 in/hr0.0 mm/hr 0.05 in1.3 mm
04:30 PM 86.9°F30.5°C 86.7°F30.4°C 99% Calm Calm 2.2 mph3.5 kmh 29.63 in1003.4 mb 0.05 in1.3 mm 0.00 in/hr0.0 mm/hr 0.05 in1.3 mm
04:25 PM 85.8°F29.9°C 85.6°F29.8°C 99% Calm Calm 1.6 mph2.6 kmh 29.63 in1003.4 mb 0.05 in1.3 mm 0.00 in/hr0.0 mm/hr 0.05 in1.3 mm
04:20 PM 85.6°F29.8°C 85.4°F29.7°C 99% Calm Calm 1.6 mph2.6 kmh 29.64 in1003.7 mb 0.05 in1.3 mm 0.00 in/hr0.0 mm/hr 0.05 in1.3 mm
04:15 PM 86.5°F30.3°C 86.3°F30.2°C 99% Calm Calm 1.6 mph2.6 kmh 29.64 in1003.7 mb 0.05 in1.3 mm 0.00 in/hr0.0 mm/hr 0.05 in1.3 mm
04:10 PM 82.9°F28.3°C 82.7°F28.2°C 99% Calm Calm -- 29.64 in1003.7 mb 0.05 in1.3 mm 0.00 in/hr0.0 mm/hr 0.05 in1.3 mm
04:05 PM 82.9°F28.3°C 82.7°F28.2°C 99% Calm Calm -- 29.64 in1003.7 mb 0.05 in1.3 mm 0.00 in/hr0.0 mm/hr 0.05 in1.3 mm
04:00 PM 81.1°F27.3°C 80.9°F27.2°C 99% Calm Calm -- 29.64 in1003.7 mb 0.05 in1.3 mm 0.00 in/hr0.0 mm/hr 0.05 in1.3 mm
03:55 PM 79.7°F26.5°C 79.5°F26.4°C 99% Calm Calm -- 29.63 in1003.4 mb 0.05 in1.3 mm 0.00 in/hr0.0 mm/hr 0.05 in1.3 mm
03:50 PM 78.6°F25.9°C 78.4°F25.8°C 99% Calm Calm 5.4 mph8.7 kmh 29.63 in1003.4 mb 0.05 in1.3 mm 0.00 in/hr0.0 mm/hr 0.05 in1.3 mm
03:45 PM 78.3°F25.7°C 78.0°F25.6°C 99% Calm Calm 12.1 mph19.5 kmh 29.63 in1003.4 mb 0.05 in1.3 mm 0.00 in/hr0.0 mm/hr 0.05 in1.3 mm
03:40 PM 79.7°F26.5°C 79.5°F26.4°C 99% 1.6 mph NW2.6 kmh NW 12.1 mph19.5 kmh 29.62 in1003.0 mb 0.05 in1.3 mm 0.48 in/hr12.2 mm/hr 0.05 in1.3 mm
03:35 PM 83.5°F28.6°C 81.3°F27.4°C 93% 3.8 mph NW6.1 kmh NW 8.3 mph13.4 kmh 29.62 in1003.0 mb 0.01 in0.3 mm 0.12 in/hr3.0 mm/hr 0.01 in0.3 mm
03:30 PM 86.0°F30.0°C 81.8°F27.7°C 87% 0.7 mph N1.1 kmh N 5.4 mph8.7 kmh 29.62 in1003.0 mb 0.00 in0.0 mm 0.00 in/hr0.0 mm/hr 1.14 in29.0 mm
03:25 PM 89.1°F31.7°C 82.2°F27.9°C 80% 0.7 mph N1.1 kmh N 3.8 mph6.1 kmh 29.63 in1003.4 mb 0.00 in0.0 mm 0.00 in/hr0.0 mm/hr 1.14 in29.0 mm
03:20 PM 89.4°F31.9°C 82.5°F28.1°C 80% 0.7 mph N1.1 kmh N 4.5 mph7.2 kmh 29.63 in1003.4 mb 0.00 in0.0 mm 0.00 in/hr0.0 mm/hr 1.14 in29.0 mm
03:15 PM 92.7°F33.7°C 84.9°F29.4°C 78% 0.7 mph NNW1.1 kmh NNW 4.5 mph7.2 kmh 29.64 in1003.7 mb 0.00 in0.0 mm 0.00 in/hr0.0 mm/hr 1.14 in29.0 mm
03:10 PM 92.8°F33.8°C 86.3°F30.2°C 81% 0.7 mph SSW1.1 kmh SSW 4.5 mph7.2 kmh 29.64 in1003.7 mb 0.00 in0.0 mm 0.00 in/hr0.0 mm/hr 1.14 in29.0 mm
03:05 PM 90.9°F32.7°C 84.3°F29.1°C 81% 0.7 mph SW1.1 kmh SW 7.6 mph12.2 kmh 29.64 in1003.7 mb 0.00 in0.0 mm 0.00 in/hr0.0 mm/hr 1.14 in29.0 mm
03:00 PM 91.4°F33.0°C 83.3°F28.5°C 77% 2.2 mph SW3.5 kmh SW 7.6 mph12.2 kmh 29.64 in1003.7 mb 0.00 in0.0 mm 0.00 in/hr0.0 mm/hr 1.14 in29.0 mm
02:55 PM 92.5°F33.6°C 85.5°F29.7°C 80% 3.1 mph WSW5.0 kmh WSW 7.6 mph12.2 kmh 29.64 in1003.7 mb 0.00 in0.0 mm 0.00 in/hr0.0 mm/hr 1.14 in29.0 mm
02:50 PM 91.0°F32.8°C 88.2°F31.2°C 91% 0.7 mph NW1.1 kmh NW 2.2 mph3.5 kmh 29.65 in1004.1 mb 0.00 in0.0 mm 0.00 in/hr0.0 mm/hr 1.14 in29.0 mm
02:45 PM 91.0°F32.8°C 88.2°F31.2°C 91% 0.7 mph NE1.1 kmh NE 2.2 mph3.5 kmh 29.65 in1004.1 mb 0.00 in0.0 mm 0.00 in/hr0.0 mm/hr 1.14 in29.0 mm
02:40 PM 89.1°F31.7°C 86.9°F30.5°C 93% 0.7 mph NE1.1 kmh NE 2.2 mph3.5 kmh 29.65 in1004.1 mb 0.00 in0.0 mm 0.00 in/hr0.0 mm/hr 1.14 in29.0 mm
02:35 PM 88.3°F31.3°C 86.8°F30.4°C 95% Calm Calm 2.2 mph3.5 kmh 29.65 in1004.1 mb 0.00 in0.0 mm 0.00 in/hr0.0 mm/hr 1.14 in29.0 mm
02:30 PM 88.3°F31.3°C 86.8°F30.4°C 95% Calm Calm 5.4 mph8.7 kmh 29.65 in1004.1 mb 0.00 in0.0 mm 0.00 in/hr0.0 mm/hr 1.14 in29.0 mm
02:25 PM 87.6°F30.9°C 85.4°F29.7°C 93% 0.7 mph NW1.1 kmh NW 5.4 mph8.7 kmh 29.65 in1004.1 mb 0.00 in0.0 mm 0.00 in/hr0.0 mm/hr 1.14 in29.0 mm
02:20 PM 88.0°F31.1°C 85.8°F29.9°C 93% 2.2 mph N3.5 kmh N 5.4 mph8.7 kmh 29.64 in1003.7 mb 0.00 in0.0 mm 0.00 in/hr0.0 mm/hr 1.14 in29.0 mm
02:15 PM 86.7°F30.4°C 85.9°F29.9°C 97% 0.7 mph N1.1 kmh N 5.4 mph8.7 kmh 29.64 in1003.7 mb 0.00 in0.0 mm 0.00 in/hr0.0 mm/hr 1.14 in29.0 mm
02:10 PM 85.3°F29.6°C 85.1°F29.5°C 99% 2.2 mph N3.5 kmh N 5.4 mph8.7 kmh 29.64 in1003.7 mb 0.00 in0.0 mm 0.00 in/hr0.0 mm/hr 1.14 in29.0 mm
02:05 PM 83.3°F28.5°C 83.1°F28.4°C 99% 2.2 mph N3.5 kmh N 3.8 mph6.1 kmh 29.64 in1003.7 mb 0.00 in0.0 mm 0.00 in/hr0.0 mm/hr 1.14 in29.0 mm
02:00 PM 82.9°F28.3°C 81.8°F27.7°C 96% 1.6 mph N2.6 kmh N 3.1 mph5.0 kmh 29.64 in1003.7 mb 0.00 in0.0 mm 0.00 in/hr0.0 mm/hr 1.14 in29.0 mm
01:55 PM 82.9°F28.3°C 81.8°F27.7°C 96% 1.6 mph N2.6 kmh N 4.5 mph7.2 kmh 29.64 in1003.7 mb 0.00 in0.0 mm 0.00 in/hr0.0 mm/hr 1.14 in29.0 mm
01:50 PM 84.6°F29.2°C 81.7°F27.6°C 91% 1.6 mph NW2.6 kmh NW 10.7 mph17.2 kmh 29.63 in1003.4 mb 0.00 in0.0 mm 0.00 in/hr0.0 mm/hr 1.14 in29.0 mm
01:45 PM 85.3°F29.6°C 81.8°F27.7°C 89% 2.2 mph WNW3.5 kmh WNW 10.7 mph17.2 kmh 29.63 in1003.4 mb 0.00 in0.0 mm 0.00 in/hr0.0 mm/hr 1.14 in29.0 mm
01:40 PM 87.6°F30.9°C 82.6°F28.1°C 85% 5.4 mph W8.7 kmh W 10.7 mph17.2 kmh 29.64 in1003.7 mb 0.00 in0.0 mm 0.00 in/hr0.0 mm/hr 1.14 in29.0 mm
01:35 PM 89.1°F31.7°C 83.7°F28.7°C 84% 6.9 mph WSW11.1 kmh WSW 10.7 mph17.2 kmh 29.64 in1003.7 mb 0.00 in0.0 mm 0.00 in/hr0.0 mm/hr 1.14 in29.0 mm
01:30 PM 88.9°F31.6°C 83.5°F28.6°C 84% 3.8 mph WSW6.1 kmh WSW 8.3 mph13.4 kmh 29.64 in1003.7 mb 0.00 in0.0 mm 0.00 in/hr0.0 mm/hr 1.14 in29.0 mm
01:25 PM 88.5°F31.4°C 83.9°F28.8°C 86% 1.6 mph W2.6 kmh W 6.9 mph11.1 kmh 29.64 in1003.7 mb 0.00 in0.0 mm 0.00 in/hr0.0 mm/hr 1.14 in29.0 mm
01:20 PM 89.1°F31.7°C 83.3°F28.5°C 83% 2.2 mph W3.5 kmh W 6.0 mph9.7 kmh 29.65 in1004.1 mb 0.00 in0.0 mm 0.00 in/hr0.0 mm/hr 1.14 in29.0 mm
01:15 PM 90.1°F32.3°C 84.7°F29.3°C 84% 2.2 mph NW3.5 kmh NW 6.0 mph9.7 kmh 29.65 in1004.1 mb 0.00 in0.0 mm 0.00 in/hr0.0 mm/hr 1.14 in29.0 mm
01:10 PM 89.4°F31.9°C 86.5°F30.3°C 91% 0.7 mph NW1.1 kmh NW 4.5 mph7.2 kmh 29.65 in1004.1 mb 0.00 in0.0 mm 0.00 in/hr0.0 mm/hr 1.14 in29.0 mm
01:05 PM 89.1°F31.7°C 85.8°F29.9°C 90% 0.7 mph SW1.1 kmh SW 4.5 mph7.2 kmh 29.66 in1004.4 mb 0.00 in0.0 mm 0.00 in/hr0.0 mm/hr 1.14 in29.0 mm
01:00 PM 88.0°F31.1°C 84.4°F29.1°C 89% 1.6 mph S2.6 kmh S 7.6 mph12.2 kmh 29.66 in1004.4 mb 0.00 in0.0 mm 0.00 in/hr0.0 mm/hr 1.14 in29.0 mm
12:55 PM 88.2°F31.2°C 83.9°F28.8°C 87% 1.6 mph W2.6 kmh W 7.6 mph12.2 kmh 29.66 in1004.4 mb 0.00 in0.0 mm 0.00 in/hr0.0 mm/hr 1.14 in29.0 mm
12:50 PM 89.4°F31.9°C 84.8°F29.3°C 86% 2.2 mph W3.5 kmh W 6.0 mph9.7 kmh 29.66 in1004.4 mb 0.00 in0.0 mm 0.00 in/hr0.0 mm/hr 1.14 in29.0 mm
12:45 PM 88.9°F31.6°C 85.7°F29.8°C 90% 1.6 mph NNW2.6 kmh NNW 7.6 mph12.2 kmh 29.67 in1004.7 mb 0.00 in0.0 mm 0.00 in/hr0.0 mm/hr 1.14 in29.0 mm
12:40 PM 88.2°F31.2°C 85.0°F29.4°C 90% 1.6 mph NW2.6 kmh NW 7.6 mph12.2 kmh 29.67 in1004.7 mb 0.00 in0.0 mm 0.00 in/hr0.0 mm/hr 1.14 in29.0 mm
12:35 PM 88.5°F31.4°C 85.0°F29.4°C 89% 1.6 mph NW2.6 kmh NW 7.6 mph12.2 kmh 29.67 in1004.7 mb 0.00 in0.0 mm 0.00 in/hr0.0 mm/hr 1.14 in29.0 mm
12:30 PM 87.6°F30.9°C 86.1°F30.1°C 95% 0.7 mph N1.1 kmh N 5.4 mph8.7 kmh 29.67 in1004.7 mb 0.00 in0.0 mm 0.00 in/hr0.0 mm/hr 1.14 in29.0 mm
12:25 PM 86.7°F30.4°C 84.2°F29.0°C 92% 1.6 mph N2.6 kmh N 6.9 mph11.1 kmh 29.68 in1005.1 mb 0.00 in0.0 mm 0.00 in/hr0.0 mm/hr 1.14 in29.0 mm
12:20 PM 87.4°F30.8°C 83.9°F28.8°C 89% 1.6 mph NW2.6 kmh NW 6.9 mph11.1 kmh 29.68 in1005.1 mb 0.00 in0.0 mm 0.00 in/hr0.0 mm/hr 1.14 in29.0 mm
12:15 PM 88.9°F31.6°C 84.6°F29.2°C 87% 0.7 mph WNW1.1 kmh WNW 6.9 mph11.1 kmh 29.68 in1005.1 mb 0.00 in0.0 mm 0.00 in/hr0.0 mm/hr 1.14 in29.0 mm
12:10 PM 90.3°F32.4°C 85.3°F29.6°C 85% 1.6 mph S2.6 kmh S 5.4 mph8.7 kmh 29.68 in1005.1 mb 0.00 in0.0 mm 0.00 in/hr0.0 mm/hr 1.14 in29.0 mm
12:05 PM 90.7°F32.6°C 86.0°F30.0°C 86% 1.6 mph SSE2.6 kmh SSE 3.8 mph6.1 kmh 29.68 in1005.1 mb 0.00 in0.0 mm 0.00 in/hr0.0 mm/hr 1.14 in29.0 mm
12:00 PM 90.7°F32.6°C 86.0°F30.0°C 86% 1.6 mph S2.6 kmh S 3.8 mph6.1 kmh 29.69 in1005.4 mb 0.00 in0.0 mm 0.00 in/hr0.0 mm/hr 1.14 in29.0 mm
11:55 AM 90.1°F32.3°C 86.2°F30.1°C 88% 0.7 mph E1.1 kmh E 3.8 mph6.1 kmh 29.69 in1005.4 mb 0.00 in0.0 mm 0.00 in/hr0.0 mm/hr 1.14 in29.0 mm
11:50 AM 90.0°F32.2°C 86.4°F30.2°C 89% 0.7 mph N1.1 kmh N 4.5 mph7.2 kmh 29.69 in1005.4 mb 0.00 in0.0 mm 0.00 in/hr0.0 mm/hr 1.14 in29.0 mm
11:45 AM 90.0°F32.2°C 87.4°F30.8°C 92% 0.7 mph NNW1.1 kmh NNW 4.5 mph7.2 kmh 29.70 in1005.8 mb 0.00 in0.0 mm 0.00 in/hr0.0 mm/hr 1.14 in29.0 mm
11:40 AM 88.9°F31.6°C 86.4°F30.2°C 92% 0.7 mph N1.1 kmh N 4.5 mph7.2 kmh 29.70 in1005.8 mb 0.00 in0.0 mm 0.00 in/hr0.0 mm/hr 1.14 in29.0 mm
11:35 AM 89.2°F31.8°C 86.0°F30.0°C 90% 0.7 mph NNE1.1 kmh NNE 4.5 mph7.2 kmh 29.70 in1005.8 mb 0.00 in0.0 mm 0.00 in/hr0.0 mm/hr 1.14 in29.0 mm
11:30 AM 90.0°F32.2°C 87.4°F30.8°C 92% Calm Calm 2.2 mph3.5 kmh 29.70 in1005.8 mb 0.00 in0.0 mm 0.00 in/hr0.0 mm/hr 1.14 in29.0 mm
11:25 AM 90.0°F32.2°C 86.7°F30.4°C 90% Calm Calm 2.2 mph3.5 kmh 29.70 in1005.8 mb 0.00 in0.0 mm 0.00 in/hr0.0 mm/hr 1.14 in29.0 mm
11:20 AM 90.7°F32.6°C 86.4°F30.2°C 87% 0.7 mph N1.1 kmh N 5.4 mph8.7 kmh 29.70 in1005.8 mb 0.00 in0.0 mm 0.00 in/hr0.0 mm/hr 1.14 in29.0 mm
11:15 AM 91.2°F32.9°C 87.6°F30.9°C 89% 0.7 mph N1.1 kmh N 5.4 mph8.7 kmh 29.71 in1006.1 mb 1.04 in26.4 mm 12.48 in/hr317.0 mm/hr 1.14 in29.0 mm
11:10 AM 90.7°F32.6°C 88.1°F31.2°C 92% Calm Calm 3.1 mph5.0 kmh 29.71 in1006.1 mb 0.00 in0.0 mm 0.00 in/hr0.0 mm/hr 0.10 in2.5 mm
11:05 AM 90.5°F32.5°C 87.3°F30.7°C 90% Calm Calm 4.5 mph7.2 kmh 29.71 in1006.1 mb 0.00 in0.0 mm 0.00 in/hr0.0 mm/hr 0.10 in2.5 mm
11:00 AM 90.1°F32.3°C 87.6°F30.9°C 92% Calm Calm 4.5 mph7.2 kmh 29.72 in1006.4 mb 0.00 in0.0 mm 0.00 in/hr0.0 mm/hr 0.10 in2.5 mm
10:55 AM 89.6°F32.0°C 88.1°F31.2°C 95% Calm Calm 3.1 mph5.0 kmh 29.72 in1006.4 mb 0.00 in0.0 mm 0.00 in/hr0.0 mm/hr 0.10 in2.5 mm
10:50 AM 88.9°F31.6°C 87.0°F30.6°C 94% Calm Calm 3.1 mph5.0 kmh 29.72 in1006.4 mb 0.00 in0.0 mm 0.00 in/hr0.0 mm/hr 0.10 in2.5 mm
10:45 AM 88.7°F31.5°C 87.5°F30.8°C 96% 0.7 mph NE1.1 kmh NE 4.5 mph7.2 kmh 29.73 in1006.8 mb 0.00 in0.0 mm 0.00 in/hr0.0 mm/hr 0.10 in2.5 mm
10:40 AM 88.5°F31.4°C 88.0°F31.1°C 98% Calm Calm 4.5 mph7.2 kmh 29.73 in1006.8 mb 0.00 in0.0 mm 0.00 in/hr0.0 mm/hr 0.10 in2.5 mm
10:35 AM 87.4°F30.8°C 87.2°F30.7°C 99% 1.6 mph W2.6 kmh W 3.1 mph5.0 kmh 29.73 in1006.8 mb 0.00 in0.0 mm 0.00 in/hr0.0 mm/hr 0.10 in2.5 mm
10:30 AM 87.3°F30.7°C 87.0°F30.6°C 99% Calm Calm 3.8 mph6.1 kmh 29.73 in1006.8 mb 0.00 in0.0 mm 0.00 in/hr0.0 mm/hr 0.10 in2.5 mm
10:25 AM 86.5°F30.3°C 86.3°F30.2°C 99% Calm Calm 3.8 mph6.1 kmh 29.73 in1006.8 mb 0.00 in0.0 mm 0.00 in/hr0.0 mm/hr 0.10 in2.5 mm
10:20 AM 85.3°F29.6°C 85.1°F29.5°C 99% 0.7 mph N1.1 kmh N 2.2 mph3.5 kmh 29.73 in1006.8 mb 0.00 in0.0 mm 0.00 in/hr0.0 mm/hr 0.10 in2.5 mm
10:15 AM 83.3°F28.5°C 83.1°F28.4°C 99% 0.7 mph N1.1 kmh N 3.1 mph5.0 kmh 29.74 in1007.1 mb 0.00 in0.0 mm 0.00 in/hr0.0 mm/hr 0.10 in2.5 mm
10:10 AM 81.3°F27.4°C 81.1°F27.3°C 99% Calm Calm 3.1 mph5.0 kmh 29.74 in1007.1 mb 0.00 in0.0 mm 0.00 in/hr0.0 mm/hr 0.10 in2.5 mm
10:05 AM 81.7°F27.6°C 81.5°F27.5°C 99% Calm Calm 3.1 mph5.0 kmh 29.74 in1007.1 mb 0.00 in0.0 mm 0.00 in/hr0.0 mm/hr 0.10 in2.5 mm
10:00 AM 81.7°F27.6°C 81.5°F27.5°C 99% Calm Calm 3.1 mph5.0 kmh 29.74 in1007.1 mb 0.00 in0.0 mm 0.00 in/hr0.0 mm/hr 0.10 in2.5 mm
09:55 AM 82.6°F28.1°C 82.4°F28.0°C 99% 0.7 mph NNE1.1 kmh NNE 2.2 mph3.5 kmh 29.74 in1007.1 mb 0.00 in0.0 mm 0.00 in/hr0.0 mm/hr 0.10 in2.5 mm
09:50 AM 82.9°F28.3°C 82.7°F28.2°C 99% 1.6 mph NW2.6 kmh NW 4.5 mph7.2 kmh 29.75 in1007.5 mb 0.00 in0.0 mm 0.00 in/hr0.0 mm/hr 0.10 in2.5 mm
09:45 AM 82.2°F27.9°C 82.0°F27.8°C 99% 0.7 mph W1.1 kmh W 4.5 mph7.2 kmh 29.75 in1007.5 mb 0.00 in0.0 mm 0.00 in/hr0.0 mm/hr 0.10 in2.5 mm
09:40 AM 81.0°F27.2°C 80.7°F27.1°C 99% 2.2 mph NW3.5 kmh NW 4.5 mph7.2 kmh 29.75 in1007.5 mb 0.00 in0.0 mm 0.00 in/hr0.0 mm/hr 0.10 in2.5 mm
09:35 AM 79.7°F26.5°C 79.5°F26.4°C 99% 0.7 mph NNE1.1 kmh NNE 3.1 mph5.0 kmh 29.75 in1007.5 mb 0.00 in0.0 mm 0.00 in/hr0.0 mm/hr 0.10 in2.5 mm
09:30 AM 78.6°F25.9°C 78.4°F25.8°C 99% 0.7 mph N1.1 kmh N 3.1 mph5.0 kmh 29.75 in1007.5 mb 0.00 in0.0 mm 0.00 in/hr0.0 mm/hr 0.10 in2.5 mm
09:25 AM 77.7°F25.4°C 77.5°F25.3°C 99% Calm Calm 3.1 mph5.0 kmh 29.75 in1007.5 mb 0.00 in0.0 mm 0.00 in/hr0.0 mm/hr 0.10 in2.5 mm
09:20 AM 77.7°F25.4°C 77.5°F25.3°C 99% Calm Calm 1.6 mph2.6 kmh 29.75 in1007.5 mb 0.00 in0.0 mm 0.00 in/hr0.0 mm/hr 0.10 in2.5 mm
09:15 AM 77.4°F25.2°C 77.1°F25.1°C 99% Calm Calm 2.2 mph3.5 kmh 29.75 in1007.5 mb 0.00 in0.0 mm 0.00 in/hr0.0 mm/hr 0.10 in2.5 mm
09:10 AM 77.2°F25.1°C 76.9°F24.9°C 99% Calm Calm 2.2 mph3.5 kmh 29.75 in1007.5 mb 0.00 in0.0 mm 0.00 in/hr0.0 mm/hr 0.10 in2.5 mm
09:05 AM 77.4°F25.2°C 77.1°F25.1°C 99% Calm Calm 2.2 mph3.5 kmh 29.75 in1007.5 mb 0.00 in0.0 mm 0.00 in/hr0.0 mm/hr 0.10 in2.5 mm
09:00 AM 76.5°F24.7°C 76.2°F24.6°C 99% Calm Calm 3.8 mph6.1 kmh 29.75 in1007.5 mb 0.00 in0.0 mm 0.00 in/hr0.0 mm/hr 0.10 in2.5 mm
08:55 AM 75.4°F24.1°C 75.1°F23.9°C 99% 0.7 mph SE1.1 kmh SE 3.8 mph6.1 kmh 29.75 in1007.5 mb 0.00 in0.0 mm 0.00 in/hr0.0 mm/hr 0.10 in2.5 mm
08:50 AM 75.4°F24.1°C 75.1°F23.9°C 99% 0.7 mph SE1.1 kmh SE 3.8 mph6.1 kmh 29.75 in1007.5 mb 0.00 in0.0 mm 0.00 in/hr0.0 mm/hr 0.10 in2.5 mm
08:45 AM 75.0°F23.9°C 74.8°F23.8°C 99% Calm Calm 2.2 mph3.5 kmh 29.75 in1007.5 mb 0.00 in0.0 mm 0.00 in/hr0.0 mm/hr 0.10 in2.5 mm
08:40 AM 74.8°F23.8°C 74.6°F23.7°C 99% Calm Calm 2.2 mph3.5 kmh 29.75 in1007.5 mb 0.00 in0.0 mm 0.00 in/hr0.0 mm/hr 0.10 in2.5 mm
08:35 AM 74.1°F23.4°C 73.9°F23.3°C 99% Calm Calm 2.2 mph3.5 kmh 29.75 in1007.5 mb 0.00 in0.0 mm 0.00 in/hr0.0 mm/hr 0.10 in2.5 mm
08:30 AM 73.9°F23.3°C 73.7°F23.2°C 99% Calm Calm 1.6 mph2.6 kmh 29.75 in1007.5 mb 0.00 in0.0 mm 0.00 in/hr0.0 mm/hr 0.10 in2.5 mm
08:25 AM 73.8°F23.2°C 73.5°F23.1°C 99% Calm Calm 1.6 mph2.6 kmh 29.75 in1007.5 mb 0.00 in0.0 mm 0.00 in/hr0.0 mm/hr 0.10 in2.5 mm
08:20 AM 73.4°F23.0°C 73.2°F22.9°C 99% Calm Calm 1.6 mph2.6 kmh 29.75 in1007.5 mb 0.00 in0.0 mm 0.00 in/hr0.0 mm/hr 0.10 in2.5 mm
08:15 AM 73.2°F22.9°C 73.0°F22.8°C 99% Calm Calm 0.7 mph1.1 kmh 29.75 in1007.5 mb 0.00 in0.0 mm 0.00 in/hr0.0 mm/hr 0.10 in2.5 mm
08:10 AM 73.2°F22.9°C 73.0°F22.8°C 99% Calm Calm 0.7 mph1.1 kmh 29.75 in1007.5 mb 0.00 in0.0 mm 0.00 in/hr0.0 mm/hr 0.10 in2.5 mm
08:05 AM 73.2°F22.9°C 73.0°F22.8°C 99% Calm Calm 0.7 mph1.1 kmh 29.75 in1007.5 mb 0.00 in0.0 mm 0.00 in/hr0.0 mm/hr 0.10 in2.5 mm
08:00 AM 72.9°F22.7°C 72.6°F22.6°C 99% Calm Calm 3.1 mph5.0 kmh 29.75 in1007.5 mb 0.00 in0.0 mm 0.00 in/hr0.0 mm/hr 0.10 in2.5 mm
07:55 AM 72.9°F22.7°C 72.6°F22.6°C 99% Calm Calm 3.1 mph5.0 kmh 29.75 in1007.5 mb 0.00 in0.0 mm 0.00 in/hr0.0 mm/hr 0.10 in2.5 mm
07:50 AM 72.9°F22.7°C 72.6°F22.6°C 99% Calm Calm 3.1 mph5.0 kmh 29.75 in1007.5 mb 0.00 in0.0 mm 0.00 in/hr0.0 mm/hr 0.10 in2.5 mm
07:45 AM 72.9°F22.7°C 72.6°F22.6°C 99% Calm Calm 3.1 mph5.0 kmh 29.75 in1007.5 mb 0.00 in0.0 mm 0.00 in/hr0.0 mm/hr 0.10 in2.5 mm
07:40 AM 72.7°F22.6°C 72.4°F22.4°C 99% Calm Calm 3.1 mph5.0 kmh 29.75 in1007.5 mb 0.00 in0.0 mm 0.00 in/hr0.0 mm/hr 0.10 in2.5 mm
07:35 AM 72.7°F22.6°C 72.4°F22.4°C 99% Calm Calm 0.7 mph1.1 kmh 29.75 in1007.5 mb 0.00 in0.0 mm 0.00 in/hr0.0 mm/hr 0.10 in2.5 mm
07:30 AM 72.7°F22.6°C 72.4°F22.4°C 99% Calm Calm 1.6 mph2.6 kmh 29.75 in1007.5 mb 0.00 in0.0 mm 0.00 in/hr0.0 mm/hr 0.10 in2.5 mm
07:25 AM 72.7°F22.6°C 72.4°F22.4°C 99% Calm Calm 1.6 mph2.6 kmh 29.75 in1007.5 mb 0.00 in0.0 mm 0.00 in/hr0.0 mm/hr 0.10 in2.5 mm
07:20 AM 72.5°F22.5°C 72.2°F22.3°C 99% Calm Calm 0.7 mph1.1 kmh 29.75 in1007.5 mb 0.00 in0.0 mm 0.00 in/hr0.0 mm/hr 0.10 in2.5 mm
07:15 AM 72.5°F22.5°C 72.2°F22.3°C 99% Calm Calm 0.7 mph1.1 kmh 29.75 in1007.5 mb 0.00 in0.0 mm 0.00 in/hr0.0 mm/hr 0.10 in2.5 mm
07:10 AM 72.5°F22.5°C 71.9°F22.2°C 98% Calm Calm 0.7 mph1.1 kmh 29.75 in1007.5 mb 0.00 in0.0 mm 0.00 in/hr0.0 mm/hr 0.10 in2.5 mm
07:05 AM 72.5°F22.5°C 72.2°F22.3°C 99% Calm Calm 1.6 mph2.6 kmh 29.75 in1007.5 mb 0.00 in0.0 mm 0.00 in/hr0.0 mm/hr 0.10 in2.5 mm
07:00 AM 72.5°F22.5°C 72.2°F22.3°C 99% Calm Calm 1.6 mph2.6 kmh 29.75 in1007.5 mb 0.00 in0.0 mm 0.00 in/hr0.0 mm/hr 0.10 in2.5 mm
06:55 AM 72.5°F22.5°C 72.2°F22.3°C 99% Calm Calm 2.2 mph3.5 kmh 29.75 in1007.5 mb 0.00 in0.0 mm 0.00 in/hr0.0 mm/hr 0.10 in2.5 mm
06:50 AM 72.5°F22.5°C 72.2°F22.3°C 99% Calm Calm 2.2 mph3.5 kmh 29.75 in1007.5 mb 0.00 in0.0 mm 0.00 in/hr0.0 mm/hr 0.10 in2.5 mm
06:45 AM 72.5°F22.5°C 72.2°F22.3°C 99% Calm Calm 1.6 mph2.6 kmh 29.75 in1007.5 mb 0.00 in0.0 mm 0.00 in/hr0.0 mm/hr 0.10 in2.5 mm
06:40 AM 72.3°F22.4°C 72.1°F22.3°C 99% Calm Calm 1.6 mph2.6 kmh 29.75 in1007.5 mb 0.00 in0.0 mm 0.00 in/hr0.0 mm/hr 0.10 in2.5 mm
06:35 AM 72.3°F22.4°C 72.1°F22.3°C 99% Calm Calm 1.6 mph2.6 kmh 29.75 in1007.5 mb 0.00 in0.0 mm 0.00 in/hr0.0 mm/hr 0.10 in2.5 mm
06:30 AM 72.3°F22.4°C 72.1°F22.3°C 99% Calm Calm 1.6 mph2.6 kmh 29.75 in1007.5 mb 0.00 in0.0 mm 0.00 in/hr0.0 mm/hr 0.10 in2.5 mm
06:25 AM 72.3°F22.4°C 72.1°F22.3°C 99% Calm Calm 0.7 mph1.1 kmh 29.75 in1007.5 mb 0.00 in0.0 mm 0.00 in/hr0.0 mm/hr 0.10 in2.5 mm
06:20 AM 72.3°F22.4°C 72.1°F22.3°C 99% Calm Calm 0.7 mph1.1 kmh 29.75 in1007.5 mb 0.00 in0.0 mm 0.00 in/hr0.0 mm/hr 0.10 in2.5 mm
06:15 AM 72.1°F22.3°C 71.9°F22.2°C 99% Calm Calm -- 29.75 in1007.5 mb 0.00 in0.0 mm 0.00 in/hr0.0 mm/hr 0.10 in2.5 mm
06:11 AM 73.2°F22.9°C 72.9°F22.7°C 99% Calm Calm -- 29.71 in1006.1 mb 0.00 in0.0 mm 0.00 in/hr0.0 mm/hr 1.36 in34.5 mm
06:10 AM 73.9°F23.3°C 73.6°F23.1°C 99% 0.7 mph NE1.1 kmh NE 1.6 mph2.6 kmh 29.71 in1006.1 mb 0.10 in2.5 mm 0.60 in/hr15.2 mm/hr 1.35 in34.3 mm